createdAt,value
2022-09-30T00:01:19.358Z,7.83
2022-09-30T00:03:45.824Z,6.60
2022-09-30T00:06:12.302Z,7.47
2022-09-30T00:08:39.194Z,7.70
2022-09-30T00:11:07.073Z,7.80
2022-09-30T00:13:34.541Z,6.60
2022-09-30T00:16:01.180Z,7.13
2022-09-30T00:18:27.967Z,7.03
2022-09-30T00:20:54.749Z,7.60
2022-09-30T00:23:21.863Z,8.23
2022-09-30T00:25:48.416Z,6.77
2022-09-30T00:28:15.364Z,8.90
2022-09-30T00:30:42.267Z,7.83
2022-09-30T00:33:10.085Z,7.50
2022-09-30T00:35:36.862Z,6.90
2022-09-30T00:38:03.371Z,8.57
2022-09-30T00:40:30.295Z,7.97
2022-09-30T00:42:57.550Z,8.87
2022-09-30T00:45:25.738Z,6.97
2022-09-30T00:47:57.383Z,6.20
2022-09-30T00:50:34.286Z,6.57
2022-09-30T00:53:06.776Z,6.80
2022-09-30T00:55:40.920Z,6.13
2022-09-30T00:58:09.880Z,6.67
2022-09-30T01:00:36.993Z,7.07
2022-09-30T01:03:04.244Z,6.20
2022-09-30T01:05:32.434Z,6.60
2022-09-30T01:08:00.603Z,7.07
2022-09-30T01:10:27.075Z,6.70
2022-09-30T01:12:53.683Z,7.80
2022-09-30T01:15:23.230Z,6.47
2022-09-30T01:18:02.555Z,6.00
2022-09-30T01:20:38.841Z,7.83
2022-09-30T01:23:24.243Z,6.73
2022-09-30T01:25:50.691Z,7.67
2022-09-30T01:28:29.034Z,8.10
2022-09-30T01:31:01.315Z,9.30
2022-09-30T01:33:40.552Z,6.40
2022-09-30T01:36:30.266Z,8.87
2022-09-30T01:39:15.206Z,6.57
2022-09-30T01:41:52.422Z,6.70
2022-09-30T01:44:23.799Z,7.50
2022-09-30T01:46:55.006Z,6.53
2022-09-30T01:49:33.048Z,8.73
2022-09-30T01:52:06.472Z,6.20
2022-09-30T01:54:39.178Z,6.80
2022-09-30T01:57:09.826Z,7.33
2022-09-30T01:59:38.937Z,6.90
2022-09-30T02:02:20.213Z,6.63
2022-09-30T02:04:53.105Z,6.30
2022-09-30T02:07:25.161Z,6.90
2022-09-30T02:09:57.524Z,6.57
2022-09-30T02:12:26.619Z,7.03
2022-09-30T02:14:57.822Z,7.40
2022-09-30T02:17:27.203Z,6.57
2022-09-30T02:19:56.412Z,6.67
2022-09-30T02:22:40.804Z,6.50
2022-09-30T02:25:08.413Z,7.20
2022-09-30T02:27:42.327Z,7.50
2022-09-30T02:30:10.457Z,6.87
2022-09-30T02:32:40.529Z,7.67
2022-09-30T02:35:43.383Z,6.27
2022-09-30T02:38:12.293Z,6.40
2022-09-30T02:40:41.536Z,6.60
2022-09-30T02:43:08.809Z,7.97
2022-09-30T02:45:40.530Z,7.90
2022-09-30T02:48:39.574Z,6.57
2022-09-30T02:51:09.090Z,6.20
2022-09-30T02:53:37.601Z,6.73
2022-09-30T02:56:20.155Z,7.87
2022-09-30T02:58:47.497Z,7.07
2022-09-30T03:01:14.874Z,8.20
2022-09-30T03:03:43.312Z,7.20
2022-09-30T03:06:10.779Z,6.63
2022-09-30T03:08:37.249Z,7.10
2022-09-30T03:11:04.307Z,8.90
2022-09-30T03:13:41.595Z,7.47
2022-09-30T03:16:11.894Z,10.53
2022-09-30T03:18:40.132Z,7.77
2022-09-30T03:21:15.574Z,7.17
2022-09-30T03:24:07.185Z,7.40
2022-09-30T03:27:00.009Z,7.37
2022-09-30T03:29:32.742Z,7.87
2022-09-30T03:32:05.014Z,6.53
2022-09-30T03:34:49.915Z,6.97
2022-09-30T03:37:25.073Z,6.53
2022-09-30T03:39:55.123Z,11.10
2022-09-30T03:42:29.203Z,6.70
2022-09-30T03:45:09.938Z,7.30
2022-09-30T03:47:40.431Z,6.70
2022-09-30T03:50:08.780Z,6.80
2022-09-30T03:52:35.334Z,6.57
2022-09-30T03:55:03.567Z,6.70
2022-09-30T03:57:30.350Z,7.10
2022-09-30T03:59:57.649Z,8.30
2022-09-30T04:02:24.835Z,8.90
2022-09-30T04:04:51.389Z,8.20
2022-09-30T04:07:17.854Z,8.37
2022-09-30T04:09:44.422Z,8.07
2022-09-30T04:12:10.951Z,7.40
2022-09-30T04:14:37.365Z,7.77
2022-09-30T04:17:04.847Z,7.17
2022-09-30T04:19:31.307Z,9.03
2022-09-30T04:21:57.784Z,10.33
2022-09-30T04:24:24.870Z,7.50
2022-09-30T04:26:51.478Z,8.87
2022-09-30T04:29:17.954Z,10.53
2022-09-30T04:31:44.524Z,9.30
2022-09-30T04:34:11.362Z,9.17
2022-09-30T04:36:38.061Z,10.37
2022-09-30T04:39:04.588Z,10.60
2022-09-30T04:41:32.351Z,9.70
2022-09-30T04:43:58.776Z,10.03
2022-09-30T04:46:25.199Z,11.57
2022-09-30T04:48:51.932Z,9.20
2022-09-30T04:51:19.797Z,8.77
2022-09-30T04:53:46.514Z,11.00
2022-09-30T04:56:13.551Z,10.87
2022-09-30T04:58:40.046Z,9.73
2022-09-30T05:01:08.075Z,9.33
2022-09-30T05:03:34.961Z,10.27
2022-09-30T05:06:01.472Z,8.93
2022-09-30T05:08:28.090Z,8.30
2022-09-30T05:10:58.573Z,8.53
2022-09-30T05:13:25.421Z,9.80
2022-09-30T05:15:52.639Z,9.00
2022-09-30T05:18:19.916Z,8.20
2022-09-30T05:20:48.903Z,8.77
2022-09-30T05:23:15.496Z,10.17
2022-09-30T05:25:41.925Z,9.20
2022-09-30T05:28:08.581Z,12.30
2022-09-30T05:30:35.000Z,29.70
2022-09-30T05:33:01.423Z,21.67
2022-09-30T05:35:28.358Z,18.13
2022-09-30T05:37:54.794Z,13.70
2022-09-30T05:40:21.396Z,11.97
2022-09-30T05:42:47.895Z,12.67
2022-09-30T05:45:14.369Z,13.90
2022-09-30T05:47:43.159Z,15.30
2022-09-30T05:50:09.589Z,15.07
2022-09-30T05:52:36.027Z,14.20
2022-09-30T05:55:03.542Z,17.37
2022-09-30T05:57:30.222Z,17.00
2022-09-30T05:59:58.146Z,15.60
2022-09-30T06:02:25.011Z,15.83
2022-09-30T06:04:51.637Z,16.87
2022-09-30T06:07:18.111Z,15.53
2022-09-30T06:09:46.345Z,17.73
2022-09-30T06:12:12.925Z,17.80
2022-09-30T06:14:39.430Z,16.87
2022-09-30T06:17:06.520Z,14.23
2022-09-30T06:19:33.006Z,12.00
2022-09-30T06:21:59.566Z,12.53
2022-09-30T06:24:26.227Z,28.90
2022-09-30T06:26:52.676Z,14.23
2022-09-30T06:29:19.766Z,13.07
2022-09-30T06:31:46.268Z,16.57
2022-09-30T06:34:12.733Z,13.93
2022-09-30T06:36:39.164Z,16.37
2022-09-30T06:39:07.256Z,16.47
2022-09-30T06:41:39.829Z,18.23
2022-09-30T06:44:06.244Z,15.20
2022-09-30T06:46:32.866Z,13.27
2022-09-30T06:49:13.471Z,13.07
2022-09-30T06:51:40.379Z,16.73
2022-09-30T06:54:07.982Z,14.67
2022-09-30T06:56:34.873Z,11.53
2022-09-30T06:59:01.799Z,12.80
2022-09-30T07:01:30.003Z,12.93
2022-09-30T07:03:58.213Z,11.40
2022-09-30T07:06:28.671Z,12.73
2022-09-30T07:08:57.070Z,10.77
2022-09-30T07:11:24.087Z,11.23
2022-09-30T07:13:50.620Z,13.53
2022-09-30T07:16:18.208Z,11.40
2022-09-30T07:18:45.781Z,13.07
2022-09-30T07:21:13.838Z,10.40
2022-09-30T07:23:48.174Z,13.70
2022-09-30T07:26:16.614Z,12.63
2022-09-30T07:28:43.767Z,9.30
2022-09-30T07:31:32.017Z,9.13
2022-09-30T07:33:58.475Z,22.20
2022-09-30T07:36:33.247Z,13.03
2022-09-30T07:39:06.411Z,12.07
2022-09-30T07:41:34.685Z,10.60
2022-09-30T07:44:01.542Z,11.33
2022-09-30T07:46:29.894Z,10.40
2022-09-30T07:48:59.337Z,10.60
2022-09-30T07:51:29.734Z,9.27
2022-09-30T07:53:57.304Z,10.03
2022-09-30T07:56:23.954Z,9.60
2022-09-30T07:58:57.214Z,6.37
2022-09-30T08:01:25.131Z,8.83
2022-09-30T08:03:55.716Z,9.67
2022-09-30T08:06:23.064Z,8.73
2022-09-30T08:08:51.493Z,7.53
2022-09-30T08:11:18.118Z,7.37
2022-09-30T08:13:44.664Z,11.30
2022-09-30T08:16:11.229Z,9.50
2022-09-30T08:18:37.928Z,8.57
2022-09-30T08:21:05.146Z,5.90
2022-09-30T08:23:31.794Z,6.83
2022-09-30T08:26:05.960Z,7.17
2022-09-30T08:28:32.509Z,3.87
2022-09-30T08:31:05.155Z,4.80
2022-09-30T08:33:32.724Z,3.97
2022-09-30T08:36:06.418Z,4.70
2022-09-30T08:38:33.344Z,5.20
2022-09-30T08:41:06.070Z,4.87
2022-09-30T08:43:55.620Z,4.37
2022-09-30T08:46:27.981Z,4.30
2022-09-30T08:49:03.337Z,4.40
2022-09-30T08:51:32.198Z,4.60
2022-09-30T08:54:00.417Z,6.77
2022-09-30T08:56:29.566Z,4.60
2022-09-30T08:59:06.170Z,5.40
2022-09-30T09:01:33.537Z,4.63
2022-09-30T09:04:01.405Z,4.80
2022-09-30T09:06:27.868Z,4.60
2022-09-30T09:09:03.201Z,5.87
2022-09-30T09:11:41.210Z,4.53
2022-09-30T09:14:19.684Z,4.70
2022-09-30T09:16:53.933Z,3.97
2022-09-30T09:19:24.534Z,4.33
2022-09-30T09:21:57.108Z,4.03
2022-09-30T09:24:25.280Z,6.60
2022-09-30T09:26:53.661Z,4.47
2022-09-30T09:29:26.142Z,3.87
2022-09-30T09:31:53.849Z,3.87
2022-09-30T09:34:20.538Z,3.60
2022-09-30T09:37:02.311Z,3.40
2022-09-30T09:39:31.612Z,4.00
2022-09-30T09:42:17.210Z,3.67
2022-09-30T09:45:01.604Z,3.27
2022-09-30T09:47:28.142Z,3.87
2022-09-30T09:50:02.443Z,3.07
2022-09-30T09:52:48.009Z,3.60
2022-09-30T09:55:17.172Z,3.53
2022-09-30T09:57:43.580Z,2.80
2022-09-30T10:00:31.833Z,3.80
2022-09-30T10:03:25.191Z,3.23
2022-09-30T10:06:02.776Z,2.30
2022-09-30T10:08:31.349Z,2.60
2022-09-30T10:11:03.380Z,3.17
2022-09-30T10:13:35.569Z,4.53
2022-09-30T10:16:02.625Z,7.30
2022-09-30T10:18:32.918Z,7.00
2022-09-30T10:21:01.321Z,4.93
2022-09-30T10:23:32.448Z,4.77
2022-09-30T10:26:03.697Z,2.50
2022-09-30T10:28:31.694Z,3.87
2022-09-30T10:31:05.918Z,2.97
2022-09-30T10:33:40.614Z,3.03
2022-09-30T10:36:12.180Z,2.90
2022-09-30T10:38:45.958Z,2.20
2022-09-30T10:41:12.701Z,3.37
2022-09-30T10:43:39.264Z,2.50
2022-09-30T10:48:54.492Z,3.00
2022-09-30T10:51:26.101Z,2.90
2022-09-30T10:53:56.076Z,3.27
2022-09-30T10:56:39.022Z,2.27
2022-09-30T10:59:19.979Z,21.57
2022-09-30T11:01:58.026Z,7.50
2022-09-30T11:04:25.912Z,6.27
2022-09-30T11:06:56.311Z,44.73
2022-09-30T11:09:36.747Z,5.43
2022-09-30T11:12:12.235Z,3.33
2022-09-30T11:14:44.288Z,2.63
2022-09-30T11:17:21.798Z,3.97
2022-09-30T11:20:12.106Z,2.77
2022-09-30T11:22:42.264Z,2.67
2022-09-30T11:25:13.275Z,3.20
2022-09-30T11:27:50.306Z,3.90
2022-09-30T11:30:16.800Z,8.70
2022-09-30T11:33:00.235Z,3.30
2022-09-30T11:35:26.858Z,2.70
2022-09-30T11:38:11.047Z,2.33
2022-09-30T11:40:49.806Z,2.97
2022-09-30T11:43:16.364Z,1.90
2022-09-30T11:45:54.164Z,2.60
2022-09-30T11:48:20.642Z,2.53
2022-09-30T11:50:58.914Z,5.97
2022-09-30T11:53:25.285Z,3.10
2022-09-30T11:55:54.288Z,2.37
2022-09-30T11:58:40.356Z,4.43
2022-09-30T12:01:07.714Z,3.73
2022-09-30T12:03:36.333Z,11.60
2022-09-30T12:06:04.887Z,4.60
2022-09-30T12:08:36.308Z,4.00
2022-09-30T12:11:05.505Z,4.57
2022-09-30T12:13:34.220Z,5.30
2022-09-30T12:16:01.421Z,4.83
2022-09-30T12:18:32.749Z,4.27
2022-09-30T12:21:04.226Z,5.00
2022-09-30T12:23:43.690Z,5.47
2022-09-30T12:26:11.516Z,7.80
2022-09-30T12:29:03.552Z,7.10
2022-09-30T12:31:33.413Z,7.60
2022-09-30T12:34:18.443Z,7.77
2022-09-30T12:36:48.067Z,5.37
2022-09-30T12:39:33.202Z,4.90
2022-09-30T12:42:13.719Z,10.37
2022-09-30T12:44:59.047Z,5.87
2022-09-30T12:47:31.392Z,5.40
2022-09-30T12:49:59.066Z,6.87
2022-09-30T12:52:26.354Z,6.97
2022-09-30T12:54:57.532Z,6.17
2022-09-30T12:57:26.560Z,10.50
2022-09-30T12:59:55.888Z,8.43
2022-09-30T13:02:36.408Z,7.00
2022-09-30T13:05:37.278Z,6.73
2022-09-30T13:08:03.783Z,5.57
2022-09-30T13:10:34.062Z,21.40
2022-09-30T13:13:17.034Z,6.33
2022-09-30T13:15:46.820Z,12.67
2022-09-30T13:18:30.999Z,11.07
2022-09-30T13:21:07.955Z,7.90
2022-09-30T13:23:42.121Z,6.87
2022-09-30T13:26:23.802Z,6.97
2022-09-30T13:28:54.014Z,5.87
2022-09-30T13:31:22.859Z,7.17
2022-09-30T13:34:12.086Z,5.47
2022-09-30T13:36:56.716Z,6.63
2022-09-30T13:39:23.301Z,5.03
2022-09-30T13:41:57.168Z,6.10
2022-09-30T13:44:40.326Z,5.43
2022-09-30T13:47:39.228Z,5.97
2022-09-30T13:50:18.773Z,5.87
2022-09-30T13:52:52.194Z,6.67
2022-09-30T13:55:21.550Z,8.23
2022-09-30T13:58:04.801Z,9.03
2022-09-30T14:00:57.641Z,6.30
2022-09-30T14:03:43.076Z,4.03
2022-09-30T14:06:22.645Z,7.50
2022-09-30T14:09:04.866Z,5.30
2022-09-30T14:11:55.515Z,2.53
2022-09-30T14:14:33.059Z,2.67
2022-09-30T14:17:01.201Z,4.83
2022-09-30T14:19:37.866Z,2.70
2022-09-30T14:22:08.837Z,2.07
2022-09-30T14:24:37.869Z,2.37
2022-09-30T14:27:10.444Z,5.17
2022-09-30T14:29:43.494Z,4.43
2022-09-30T14:32:14.199Z,8.80
2022-09-30T14:34:41.461Z,8.57
2022-09-30T14:37:18.385Z,2.90
2022-09-30T14:39:46.826Z,22.90
2022-09-30T14:42:19.548Z,3.93
2022-09-30T14:44:47.451Z,2.73
2022-09-30T14:47:15.631Z,4.20
2022-09-30T14:49:42.243Z,3.20
2022-09-30T14:52:28.668Z,3.93
2022-09-30T14:54:55.202Z,4.00
2022-09-30T14:57:24.282Z,8.07
2022-09-30T14:59:50.997Z,13.70
2022-09-30T15:02:21.500Z,8.83
2022-09-30T15:04:50.511Z,15.40
2022-09-30T15:07:18.358Z,11.87
2022-09-30T15:09:46.628Z,13.37
2022-09-30T15:12:13.992Z,10.83
2022-09-30T15:14:47.468Z,10.73
2022-09-30T15:17:21.957Z,9.40
2022-09-30T15:19:50.434Z,7.40
2022-09-30T15:22:18.282Z,8.33
2022-09-30T15:24:46.358Z,7.93
2022-09-30T15:27:35.573Z,8.23
2022-09-30T15:30:04.775Z,9.90
2022-09-30T15:32:33.485Z,12.00
2022-09-30T15:35:26.684Z,16.63
2022-09-30T15:37:53.342Z,17.23
2022-09-30T15:40:39.728Z,28.53
2022-09-30T15:43:07.333Z,32.37
2022-09-30T15:45:35.983Z,20.13
2022-09-30T15:48:05.245Z,22.17
2022-09-30T15:50:36.259Z,37.77
2022-09-30T15:53:06.835Z,25.70
2022-09-30T15:55:36.092Z,29.63
2022-09-30T15:58:02.877Z,27.33
2022-09-30T16:00:33.838Z,33.30
2022-09-30T16:03:26.894Z,36.40
2022-09-30T16:05:54.389Z,37.93
2022-09-30T16:08:25.705Z,29.33
2022-09-30T16:10:54.311Z,31.47
2022-09-30T16:13:25.923Z,16.53
2022-09-30T16:15:54.337Z,11.03
2022-09-30T16:18:23.991Z,12.70
2022-09-30T16:21:01.074Z,10.17
2022-09-30T16:23:31.491Z,18.23
2022-09-30T16:26:33.704Z,29.67
2022-09-30T16:29:08.207Z,37.87
2022-09-30T16:31:40.472Z,16.97
2022-09-30T16:34:07.216Z,12.20
2022-09-30T16:36:34.210Z,10.70
2022-09-30T16:39:01.031Z,11.20
2022-09-30T16:41:27.651Z,8.07
2022-09-30T16:43:54.143Z,9.07
2022-09-30T16:46:20.659Z,7.30
2022-09-30T16:48:47.460Z,9.33
2022-09-30T16:51:15.437Z,11.23
2022-09-30T16:53:42.187Z,7.60
2022-09-30T16:56:29.255Z,12.63
2022-09-30T16:58:56.019Z,7.30
2022-09-30T17:01:23.716Z,8.73
2022-09-30T17:03:50.616Z,8.03
2022-09-30T17:06:18.189Z,11.77
2022-09-30T17:08:45.426Z,8.93
2022-09-30T17:11:11.836Z,12.27
2022-09-30T17:13:38.388Z,13.83
2022-09-30T17:16:04.974Z,13.87
2022-09-30T17:18:31.490Z,9.73
2022-09-30T17:21:01.363Z,11.37
2022-09-30T17:23:28.294Z,12.53
2022-09-30T17:25:55.353Z,10.17
2022-09-30T17:28:22.465Z,10.27
2022-09-30T17:30:50.642Z,20.37
2022-09-30T17:33:19.105Z,13.07
2022-09-30T17:35:45.960Z,11.20
2022-09-30T17:38:19.551Z,19.10
2022-09-30T17:41:11.070Z,15.50
2022-09-30T17:43:37.991Z,11.97
2022-09-30T17:46:06.429Z,12.07
2022-09-30T17:48:33.709Z,19.63
2022-09-30T17:51:00.881Z,14.60
2022-09-30T17:53:29.845Z,16.50
2022-09-30T17:56:05.401Z,15.83
2022-09-30T17:58:32.589Z,16.67
2022-09-30T18:00:59.969Z,18.50
2022-09-30T18:03:28.613Z,21.40
2022-09-30T18:06:00.218Z,26.83
2022-09-30T18:08:28.612Z,10.53
2022-09-30T18:10:58.154Z,8.57
2022-09-30T18:13:25.930Z,7.63
2022-09-30T18:15:53.105Z,27.10
2022-09-30T18:18:19.988Z,22.30
2022-09-30T18:20:47.939Z,20.57
2022-09-30T18:23:16.999Z,32.20
2022-09-30T18:25:44.052Z,30.47
2022-09-30T18:28:11.886Z,18.40
2022-09-30T18:30:39.433Z,17.03
2022-09-30T18:33:08.033Z,17.50
2022-09-30T18:35:36.236Z,14.90
2022-09-30T18:38:03.143Z,24.30
2022-09-30T18:40:31.127Z,30.53
2022-09-30T18:42:59.745Z,50.33
2022-09-30T18:45:27.657Z,57.60
2022-09-30T18:47:56.595Z,54.67
2022-09-30T18:50:26.887Z,56.57
2022-09-30T18:52:55.640Z,43.37
2022-09-30T18:55:22.527Z,40.97
2022-09-30T18:57:50.648Z,38.87
2022-09-30T19:00:18.072Z,41.13
2022-09-30T19:02:45.085Z,43.67
2022-09-30T19:05:17.254Z,41.57
2022-09-30T19:07:46.695Z,44.50
2022-09-30T19:10:15.107Z,40.43
2022-09-30T19:12:45.095Z,38.93
2022-09-30T19:15:17.719Z,39.13
2022-09-30T19:17:45.490Z,37.93
2022-09-30T19:20:14.606Z,41.90
2022-09-30T19:22:41.924Z,35.10
2022-09-30T19:25:13.087Z,36.77
2022-09-30T19:27:41.932Z,32.23
2022-09-30T19:30:10.619Z,31.98
2022-09-30T19:32:37.855Z,30.00
2022-09-30T19:35:06.959Z,33.80
2022-09-30T19:37:37.138Z,31.47
2022-09-30T19:40:20.378Z,31.57
2022-09-30T19:42:49.849Z,32.70
2022-09-30T19:45:18.781Z,39.20
2022-09-30T19:47:49.607Z,62.83
2022-09-30T19:50:16.849Z,59.67
2022-09-30T19:52:54.124Z,91.43
2022-09-30T19:55:23.940Z,47.83
2022-09-30T19:57:51.193Z,43.47
2022-09-30T20:00:19.245Z,39.20
2022-09-30T20:02:46.760Z,38.73
2022-09-30T20:05:14.604Z,27.90
2022-09-30T20:07:41.434Z,24.73
2022-09-30T20:10:08.289Z,25.63
2022-09-30T20:12:35.157Z,16.43
2022-09-30T20:15:22.548Z,12.57
2022-09-30T20:17:49.143Z,12.10
2022-09-30T20:20:34.620Z,8.27
2022-09-30T20:23:01.302Z,7.90
2022-09-30T20:25:28.345Z,8.27
2022-09-30T20:27:57.725Z,7.83
2022-09-30T20:30:25.156Z,14.63
2022-09-30T20:32:52.655Z,11.63
2022-09-30T20:35:19.251Z,70.57
2022-09-30T20:37:45.873Z,64.23
2022-09-30T20:40:12.841Z,19.53
2022-09-30T20:42:40.525Z,11.73
2022-09-30T20:45:10.530Z,8.77
2022-09-30T20:47:42.311Z,10.90
2022-09-30T20:50:10.527Z,8.70
2022-09-30T20:52:37.305Z,9.93
2022-09-30T20:55:04.147Z,11.77
2022-09-30T20:57:30.834Z,12.67
2022-09-30T20:59:59.397Z,9.80
2022-09-30T21:02:27.721Z,11.33
2022-09-30T21:04:55.515Z,13.37
2022-09-30T21:07:22.206Z,9.73
2022-09-30T21:09:48.802Z,15.03
2022-09-30T21:12:17.033Z,14.93
2022-09-30T21:14:43.710Z,15.53
2022-09-30T21:17:10.453Z,14.37
2022-09-30T21:19:37.146Z,13.13
2022-09-30T21:22:03.709Z,12.40
2022-09-30T21:24:30.427Z,13.17
2022-09-30T21:26:57.192Z,12.77
2022-09-30T21:29:23.970Z,10.90
2022-09-30T21:31:50.654Z,13.87
2022-09-30T21:34:17.215Z,11.80
2022-09-30T21:36:43.789Z,11.27
2022-09-30T21:39:11.596Z,11.23
2022-09-30T21:41:38.032Z,11.77
2022-09-30T21:44:04.491Z,11.23
2022-09-30T21:46:31.038Z,11.63
2022-09-30T21:49:08.279Z,13.10
2022-09-30T21:51:35.719Z,13.43
2022-09-30T21:54:02.931Z,11.90
2022-09-30T21:56:29.696Z,12.27
2022-09-30T21:58:56.287Z,10.90
2022-09-30T22:01:23.115Z,11.83
2022-09-30T22:03:49.718Z,12.13
2022-09-30T22:06:19.419Z,11.90
2022-09-30T22:08:45.957Z,11.13
2022-09-30T22:11:17.660Z,12.50
2022-09-30T22:13:45.585Z,12.13
2022-09-30T22:16:15.274Z,11.93
2022-09-30T22:18:42.704Z,14.03
2022-09-30T22:21:11.224Z,12.43
2022-09-30T22:23:38.017Z,12.47
2022-09-30T22:26:07.677Z,14.37
2022-09-30T22:28:34.535Z,13.10
2022-09-30T22:31:09.413Z,11.90
2022-09-30T22:33:54.875Z,12.87
2022-09-30T22:36:39.837Z,12.37
2022-09-30T22:39:06.349Z,13.87
2022-09-30T22:41:33.805Z,12.40
2022-09-30T22:44:00.954Z,13.97
2022-09-30T22:46:29.389Z,12.27
2022-09-30T22:48:59.449Z,12.73
2022-09-30T22:51:26.395Z,12.33
2022-09-30T22:53:52.871Z,12.07
2022-09-30T22:56:20.149Z,14.80
2022-09-30T22:58:47.165Z,12.77
2022-09-30T23:01:13.817Z,14.07
2022-09-30T23:03:40.391Z,13.17
2022-09-30T23:06:06.908Z,12.73
2022-09-30T23:08:34.202Z,12.43
2022-09-30T23:11:00.715Z,12.27
2022-09-30T23:13:30.665Z,12.37
2022-09-30T23:15:57.819Z,12.87
2022-09-30T23:18:24.409Z,13.63
2022-09-30T23:20:55.175Z,11.97
2022-09-30T23:23:21.732Z,13.13
2022-09-30T23:25:48.195Z,12.53
2022-09-30T23:28:14.767Z,12.73
2022-09-30T23:30:41.230Z,14.33
2022-09-30T23:33:09.487Z,12.87
2022-09-30T23:35:35.930Z,13.03
2022-09-30T23:38:02.384Z,15.53
2022-09-30T23:40:28.889Z,14.03
2022-09-30T23:42:55.333Z,12.83
2022-09-30T23:45:21.823Z,13.40
2022-09-30T23:47:48.799Z,12.37
2022-09-30T23:50:15.745Z,13.37
2022-09-30T23:52:43.021Z,12.13
2022-09-30T23:55:11.650Z,14.10
2022-09-30T23:57:38.246Z,15.33
